sensor_id;sensor_type;location;lat;lon;timestamp;pressure;altitude;pressure_sealevel;temperature;humidity
15646;BME280;7922;43.622;1.476;2023-03-04T00:01:20;100771.34;;;0.97;80.40
15646;BME280;7922;43.622;1.476;2023-03-04T00:03:45;100761.78;;;0.94;81.10
15646;BME280;7922;43.622;1.476;2023-03-04T00:06:10;100756.50;;;0.88;81.14
15646;BME280;7922;43.622;1.476;2023-03-04T00:08:36;100787.91;;;0.99;81.29
15646;BME280;7922;43.622;1.476;2023-03-04T00:11:01;100601.84;;;-0.02;80.75
15646;BME280;7922;43.622;1.476;2023-03-04T00:13:26;100768.69;;;0.88;81.03
15646;BME280;7922;43.622;1.476;2023-03-04T00:15:52;100766.03;;;0.86;80.71
15646;BME280;7922;43.622;1.476;2023-03-04T00:18:18;100740.56;;;0.61;81.17
15646;BME280;7922;43.622;1.476;2023-03-04T00:20:43;100765.88;;;0.72;81.41
15646;BME280;7922;43.622;1.476;2023-03-04T00:23:08;100749.22;;;0.55;81.32
15646;BME280;7922;43.622;1.476;2023-03-04T00:25:33;100651.31;;;-0.04;81.59
15646;BME280;7922;43.622;1.476;2023-03-04T00:27:59;100639.91;;;-0.12;81.66
15646;BME280;7922;43.622;1.476;2023-03-04T00:30:24;100815.53;;;0.82;81.48
15646;BME280;7922;43.622;1.476;2023-03-04T00:32:49;100765.81;;;0.65;81.61
15646;BME280;7922;43.622;1.476;2023-03-04T00:35:15;100751.63;;;0.40;81.85
15646;BME280;7922;43.622;1.476;2023-03-04T00:37:40;100790.09;;;0.61;82.21
15646;BME280;7922;43.622;1.476;2023-03-04T00:40:07;100864.50;;;1.09;81.25
15646;BME280;7922;43.622;1.476;2023-03-04T00:42:32;100578.69;;;-0.55;82.10
15646;BME280;7922;43.622;1.476;2023-03-04T00:44:58;100618.78;;;-0.39;82.12
15646;BME280;7922;43.622;1.476;2023-03-04T00:47:23;100721.00;;;0.17;82.46
15646;BME280;7922;43.622;1.476;2023-03-04T00:49:48;100769.13;;;0.48;82.55
15646;BME280;7922;43.622;1.476;2023-03-04T00:52:13;100767.28;;;0.40;82.31
15646;BME280;7922;43.622;1.476;2023-03-04T00:54:39;100798.75;;;0.55;82.49
15646;BME280;7922;43.622;1.476;2023-03-04T00:57:04;100766.44;;;0.42;82.13
15646;BME280;7922;43.622;1.476;2023-03-04T00:59:29;100798.00;;;0.67;82.37
15646;BME280;7922;43.622;1.476;2023-03-04T01:01:55;100811.81;;;0.58;82.41
15646;BME280;7922;43.622;1.476;2023-03-04T01:04:20;100780.38;;;0.46;82.12
15646;BME280;7922;43.622;1.476;2023-03-04T01:06:45;100652.66;;;-0.36;81.81
15646;BME280;7922;43.622;1.476;2023-03-04T01:09:10;100761.94;;;0.26;82.77
15646;BME280;7922;43.622;1.476;2023-03-04T01:11:36;100760.19;;;0.28;82.60
15646;BME280;7922;43.622;1.476;2023-03-04T01:14:01;100823.72;;;0.39;82.60
15646;BME280;7922;43.622;1.476;2023-03-04T01:16:26;100746.84;;;0.01;83.20
15646;BME280;7922;43.622;1.476;2023-03-04T01:18:52;100550.22;;;-1.10;82.80
15646;BME280;7922;43.622;1.476;2023-03-04T01:21:17;100612.19;;;-0.80;83.80
15646;BME280;7922;43.622;1.476;2023-03-04T01:23:42;100640.00;;;-0.76;83.26
15646;BME280;7922;43.622;1.476;2023-03-04T01:26:07;100773.69;;;-0.05;83.34
15646;BME280;7922;43.622;1.476;2023-03-04T01:28:33;100646.03;;;-0.77;83.50
15646;BME280;7922;43.622;1.476;2023-03-04T01:30:58;100786.63;;;-0.10;84.14
15646;BME280;7922;43.622;1.476;2023-03-04T01:33:23;100769.34;;;-0.06;84.54
15646;BME280;7922;43.622;1.476;2023-03-04T01:35:48;100731.69;;;-0.30;83.57
15646;BME280;7922;43.622;1.476;2023-03-04T01:38:14;100730.81;;;-0.32;84.06
15646;BME280;7922;43.622;1.476;2023-03-04T01:40:39;100778.09;;;0.01;84.05
15646;BME280;7922;43.622;1.476;2023-03-04T01:43:04;100739.78;;;-0.10;83.96
15646;BME280;7922;43.622;1.476;2023-03-04T01:45:30;100704.78;;;-0.30;84.16
15646;BME280;7922;43.622;1.476;2023-03-04T01:47:56;100598.09;;;-0.97;83.77
15646;BME280;7922;43.622;1.476;2023-03-04T01:50:33;100788.56;;;0.05;83.93
15646;BME280;7922;43.622;1.476;2023-03-04T01:52:59;100661.84;;;-0.63;84.75
15646;BME280;7922;43.622;1.476;2023-03-04T01:55:24;100788.53;;;0.02;83.97
15646;BME280;7922;43.622;1.476;2023-03-04T01:57:51;100813.16;;;0.26;83.63
15646;BME280;7922;43.622;1.476;2023-03-04T02:00:29;100762.25;;;-0.16;83.96
15646;BME280;7922;43.622;1.476;2023-03-04T02:03:01;100755.25;;;-0.19;84.35
15646;BME280;7922;43.622;1.476;2023-03-04T02:05:28;100743.88;;;-0.29;84.50
15646;BME280;7922;43.622;1.476;2023-03-04T02:07:55;100783.19;;;-0.09;84.07
15646;BME280;7922;43.622;1.476;2023-03-04T02:10:21;100721.16;;;-0.37;84.38
15646;BME280;7922;43.622;1.476;2023-03-04T02:12:47;100694.03;;;-0.56;84.24
15646;BME280;7922;43.622;1.476;2023-03-04T02:15:12;100644.13;;;-0.90;84.95
15646;BME280;7922;43.622;1.476;2023-03-04T02:17:38;100638.88;;;-0.93;85.01
15646;BME280;7922;43.622;1.476;2023-03-04T02:22:38;100760.25;;;-0.34;85.25
15646;BME280;7922;43.622;1.476;2023-03-04T02:25:12;100814.31;;;-0.15;85.52
15646;BME280;7922;43.622;1.476;2023-03-04T02:27:41;100729.56;;;-0.57;85.24
15646;BME280;7922;43.622;1.476;2023-03-04T02:30:06;100714.69;;;-0.67;85.14
15646;BME280;7922;43.622;1.476;2023-03-04T02:32:32;100475.31;;;-1.98;84.50
15646;BME280;7922;43.622;1.476;2023-03-04T02:34:57;100697.13;;;-0.80;85.77
15646;BME280;7922;43.622;1.476;2023-03-04T02:37:23;100733.81;;;-0.63;85.32
15646;BME280;7922;43.622;1.476;2023-03-04T02:39:48;100702.41;;;-0.76;85.16
15646;BME280;7922;43.622;1.476;2023-03-04T02:42:14;100721.50;;;-0.74;85.75
15646;BME280;7922;43.622;1.476;2023-03-04T02:44:42;100685.81;;;-0.84;85.56
15646;BME280;7922;43.622;1.476;2023-03-04T02:47:09;100702.38;;;-0.77;85.50
15646;BME280;7922;43.622;1.476;2023-03-04T02:49:36;100557.31;;;-1.57;85.77
15646;BME280;7922;43.622;1.476;2023-03-04T02:52:22;100760.19;;;-0.39;85.85
15646;BME280;7922;43.622;1.476;2023-03-04T02:54:48;100708.59;;;-0.67;85.40
15646;BME280;7922;43.622;1.476;2023-03-04T02:57:14;100600.16;;;-1.32;85.40
15646;BME280;7922;43.622;1.476;2023-03-04T02:59:40;100625.56;;;-1.14;85.48
15646;BME280;7922;43.622;1.476;2023-03-04T03:02:07;100746.81;;;-0.63;85.56
15646;BME280;7922;43.622;1.476;2023-03-04T03:04:35;100723.13;;;-0.83;85.65
15646;BME280;7922;43.622;1.476;2023-03-04T03:07:00;100590.28;;;-1.55;85.85
15646;BME280;7922;43.622;1.476;2023-03-04T03:09:26;100787.09;;;-0.38;86.08
15646;BME280;7922;43.622;1.476;2023-03-04T03:11:51;100717.13;;;-0.78;86.21
15646;BME280;7922;43.622;1.476;2023-03-04T03:14:16;100693.53;;;-0.90;85.48
15646;BME280;7922;43.622;1.476;2023-03-04T03:16:41;100769.75;;;-0.38;85.68
15646;BME280;7922;43.622;1.476;2023-03-04T03:19:07;100623.53;;;-1.32;85.13
15646;BME280;7922;43.622;1.476;2023-03-04T03:21:32;100647.97;;;-1.23;85.31
15646;BME280;7922;43.622;1.476;2023-03-04T03:23:57;100692.50;;;-1.00;85.69
15646;BME280;7922;43.622;1.476;2023-03-04T03:26:23;100633.94;;;-1.32;85.29
15646;BME280;7922;43.622;1.476;2023-03-04T03:28:48;100750.28;;;-0.63;85.95
15646;BME280;7922;43.622;1.476;2023-03-04T03:31:13;100774.91;;;-0.42;86.30
15646;BME280;7922;43.622;1.476;2023-03-04T03:33:39;100735.53;;;-0.65;85.40
15646;BME280;7922;43.622;1.476;2023-03-04T03:36:05;100717.16;;;-0.75;85.19
15646;BME280;7922;43.622;1.476;2023-03-04T03:38:30;100691.63;;;-1.00;85.53
15646;BME280;7922;43.622;1.476;2023-03-04T03:40:56;100771.16;;;-0.61;85.38
15646;BME280;7922;43.622;1.476;2023-03-04T03:43:21;100630.03;;;-1.59;85.77
15646;BME280;7922;43.622;1.476;2023-03-04T03:45:46;100691.28;;;-1.22;85.58
15646;BME280;7922;43.622;1.476;2023-03-04T03:48:12;100617.66;;;-1.74;86.45
15646;BME280;7922;43.622;1.476;2023-03-04T03:50:37;100651.81;;;-1.51;86.19
15646;BME280;7922;43.622;1.476;2023-03-04T03:53:02;100556.50;;;-2.06;86.50
15646;BME280;7922;43.622;1.476;2023-03-04T03:55:28;100625.50;;;-1.71;86.78
15646;BME280;7922;43.622;1.476;2023-03-04T03:57:53;100695.41;;;-1.34;86.62
15646;BME280;7922;43.622;1.476;2023-03-04T04:00:18;100678.84;;;-1.41;87.04
15646;BME280;7922;43.622;1.476;2023-03-04T04:02:44;100551.13;;;-2.17;86.09
15646;BME280;7922;43.622;1.476;2023-03-04T04:05:09;100491.59;;;-2.55;86.39
15646;BME280;7922;43.622;1.476;2023-03-04T04:07:36;100702.28;;;-1.36;86.76
15646;BME280;7922;43.622;1.476;2023-03-04T04:10:04;100593.66;;;-2.07;87.44
15646;BME280;7922;43.622;1.476;2023-03-04T04:12:29;100511.53;;;-2.54;87.25
15646;BME280;7922;43.622;1.476;2023-03-04T04:14:54;100669.81;;;-1.61;87.27
15646;BME280;7922;43.622;1.476;2023-03-04T04:17:20;100734.53;;;-1.27;87.37
15646;BME280;7922;43.622;1.476;2023-03-04T04:19:45;100743.44;;;-1.11;87.28
15646;BME280;7922;43.622;1.476;2023-03-04T04:22:14;100741.91;;;-1.00;86.76
15646;BME280;7922;43.622;1.476;2023-03-04T04:24:40;100596.56;;;-1.90;86.75
15646;BME280;7922;43.622;1.476;2023-03-04T04:27:05;100621.94;;;-1.77;85.99
15646;BME280;7922;43.622;1.476;2023-03-04T04:29:30;100666.59;;;-1.48;85.93
15646;BME280;7922;43.622;1.476;2023-03-04T04:31:56;100766.25;;;-0.94;86.35
15646;BME280;7922;43.622;1.476;2023-03-04T04:34:21;100635.03;;;-1.70;86.54
15646;BME280;7922;43.622;1.476;2023-03-04T04:36:47;100668.19;;;-1.55;86.07
15646;BME280;7922;43.622;1.476;2023-03-04T04:39:12;100595.31;;;-2.14;86.67
15646;BME280;7922;43.622;1.476;2023-03-04T04:41:41;100562.09;;;-2.30;86.29
15646;BME280;7922;43.622;1.476;2023-03-04T04:44:07;100557.72;;;-2.34;86.80
15646;BME280;7922;43.622;1.476;2023-03-04T04:46:33;100683.72;;;-1.59;86.86
15646;BME280;7922;43.622;1.476;2023-03-04T04:48:58;100698.47;;;-1.57;87.33
15646;BME280;7922;43.622;1.476;2023-03-04T04:51:24;100569.81;;;-2.35;88.01
15646;BME280;7922;43.622;1.476;2023-03-04T04:53:49;100707.03;;;-1.62;87.44
15646;BME280;7922;43.622;1.476;2023-03-04T04:56:17;100690.56;;;-1.63;86.89
15646;BME280;7922;43.622;1.476;2023-03-04T04:58:43;100712.50;;;-1.47;86.82
15646;BME280;7922;43.622;1.476;2023-03-04T05:01:09;100494.69;;;-2.74;86.64
15646;BME280;7922;43.622;1.476;2023-03-04T05:03:35;100742.22;;;-1.31;86.79
15646;BME280;7922;43.622;1.476;2023-03-04T05:06:01;100648.78;;;-1.75;86.98
15646;BME280;7922;43.622;1.476;2023-03-04T05:08:26;100730.06;;;-1.34;86.73
15646;BME280;7922;43.622;1.476;2023-03-04T05:10:52;100691.41;;;-1.64;87.29
15646;BME280;7922;43.622;1.476;2023-03-04T05:13:17;100466.72;;;-2.91;86.81
15646;BME280;7922;43.622;1.476;2023-03-04T05:15:43;100708.91;;;-1.54;87.38
15646;BME280;7922;43.622;1.476;2023-03-04T05:18:08;100777.94;;;-1.21;86.62
15646;BME280;7922;43.622;1.476;2023-03-04T05:20:34;100654.50;;;-1.93;87.33
15646;BME280;7922;43.622;1.476;2023-03-04T05:22:59;100534.69;;;-2.63;87.34
15646;BME280;7922;43.622;1.476;2023-03-04T05:25:24;100567.22;;;-2.33;86.77
15646;BME280;7922;43.622;1.476;2023-03-04T05:27:49;100781.56;;;-1.11;86.88
15646;BME280;7922;43.622;1.476;2023-03-04T05:30:15;100721.34;;;-1.37;86.74
15646;BME280;7922;43.622;1.476;2023-03-04T05:32:40;100535.22;;;-2.35;86.32
15646;BME280;7922;43.622;1.476;2023-03-04T05:35:06;100703.94;;;-1.41;86.40
15646;BME280;7922;43.622;1.476;2023-03-04T05:37:31;100588.66;;;-1.97;85.48
15646;BME280;7922;43.622;1.476;2023-03-04T05:39:56;100675.06;;;-1.57;85.35
15646;BME280;7922;43.622;1.476;2023-03-04T05:42:22;100696.38;;;-1.28;85.86
15646;BME280;7922;43.622;1.476;2023-03-04T05:44:47;100759.34;;;-0.92;86.08
15646;BME280;7922;43.622;1.476;2023-03-04T05:47:12;100461.88;;;-2.74;85.32
15646;BME280;7922;43.622;1.476;2023-03-04T05:49:37;100699.94;;;-1.23;84.98
15646;BME280;7922;43.622;1.476;2023-03-04T05:52:03;100524.44;;;-2.08;84.75
15646;BME280;7922;43.622;1.476;2023-03-04T05:54:28;100713.41;;;-0.93;84.52
15646;BME280;7922;43.622;1.476;2023-03-04T05:56:53;100704.69;;;-0.95;84.20
15646;BME280;7922;43.622;1.476;2023-03-04T05:59:18;100692.53;;;-0.98;83.83
15646;BME280;7922;43.622;1.476;2023-03-04T06:01:44;100729.38;;;-0.70;84.01
15646;BME280;7922;43.622;1.476;2023-03-04T06:04:09;100721.56;;;-0.72;83.95
15646;BME280;7922;43.622;1.476;2023-03-04T06:06:34;100725.91;;;-0.69;83.79
15646;BME280;7922;43.622;1.476;2023-03-04T06:08:59;100790.63;;;-0.35;83.98
15646;BME280;7922;43.622;1.476;2023-03-04T06:11:25;100634.09;;;-1.23;84.07
15646;BME280;7922;43.622;1.476;2023-03-04T06:13:50;100542.47;;;-1.64;83.15
15646;BME280;7922;43.622;1.476;2023-03-04T06:16:15;100501.38;;;-1.91;83.36
15646;BME280;7922;43.622;1.476;2023-03-04T06:18:41;100774.13;;;-0.34;83.83
15646;BME280;7922;43.622;1.476;2023-03-04T06:21:06;100775.94;;;-0.31;83.64
15646;BME280;7922;43.622;1.476;2023-03-04T06:23:31;100625.59;;;-1.11;83.06
15646;BME280;7922;43.622;1.476;2023-03-04T06:25:58;100765.50;;;-0.33;82.87
15646;BME280;7922;43.622;1.476;2023-03-04T06:28:24;100625.72;;;-1.02;82.87
15646;BME280;7922;43.622;1.476;2023-03-04T06:30:54;100795.41;;;-0.03;82.71
15646;BME280;7922;43.622;1.476;2023-03-04T06:33:20;100734.94;;;-0.46;83.10
15646;BME280;7922;43.622;1.476;2023-03-04T06:35:45;100752.44;;;-0.34;83.06
15646;BME280;7922;43.622;1.476;2023-03-04T06:38:11;100813.00;;;0.13;83.29
15646;BME280;7922;43.622;1.476;2023-03-04T06:40:36;100665.97;;;-0.77;83.55
15646;BME280;7922;43.622;1.476;2023-03-04T06:43:01;100790.22;;;-0.03;82.69
15646;BME280;7922;43.622;1.476;2023-03-04T06:45:27;100796.09;;;-0.15;83.48
15646;BME280;7922;43.622;1.476;2023-03-04T06:47:52;100709.78;;;-0.47;82.96
15646;BME280;7922;43.622;1.476;2023-03-04T06:50:18;100746.72;;;-0.10;82.66
15646;BME280;7922;43.622;1.476;2023-03-04T06:52:43;100803.53;;;0.21;82.75
15646;BME280;7922;43.622;1.476;2023-03-04T06:55:09;100775.69;;;0.16;82.38
15646;BME280;7922;43.622;1.476;2023-03-04T06:57:34;100743.56;;;0.15;82.35
15646;BME280;7922;43.622;1.476;2023-03-04T07:00:00;100785.50;;;0.37;82.79
15646;BME280;7922;43.622;1.476;2023-03-04T07:02:25;100725.16;;;0.02;82.53
15646;BME280;7922;43.622;1.476;2023-03-04T07:04:51;100685.91;;;-0.14;82.15
15646;BME280;7922;43.622;1.476;2023-03-04T07:07:16;100622.22;;;-0.40;81.81
15646;BME280;7922;43.622;1.476;2023-03-04T07:09:41;100758.66;;;0.45;81.86
15646;BME280;7922;43.622;1.476;2023-03-04T07:12:06;100826.06;;;0.88;81.63
15646;BME280;7922;43.622;1.476;2023-03-04T07:14:32;100783.34;;;0.77;81.92
15646;BME280;7922;43.622;1.476;2023-03-04T07:16:57;100800.81;;;0.87;81.38
15646;BME280;7922;43.622;1.476;2023-03-04T07:19:22;100649.63;;;0.02;81.48
15646;BME280;7922;43.622;1.476;2023-03-04T07:21:48;100806.19;;;1.05;81.58
15646;BME280;7922;43.622;1.476;2023-03-04T07:24:13;100872.66;;;1.41;81.56
15646;BME280;7922;43.622;1.476;2023-03-04T07:26:38;100820.25;;;1.16;81.36
15646;BME280;7922;43.622;1.476;2023-03-04T07:29:04;100812.41;;;1.18;81.09
15646;BME280;7922;43.622;1.476;2023-03-04T07:31:32;100625.44;;;0.12;80.84
15646;BME280;7922;43.622;1.476;2023-03-04T07:34:03;100807.28;;;1.26;79.96
15646;BME280;7922;43.622;1.476;2023-03-04T07:36:29;100866.00;;;1.77;79.80
15646;BME280;7922;43.622;1.476;2023-03-04T07:38:54;100613.47;;;0.29;79.71
15646;BME280;7922;43.622;1.476;2023-03-04T07:41:21;100804.03;;;1.53;80.15
15646;BME280;7922;43.622;1.476;2023-03-04T07:43:47;100630.22;;;0.60;80.13
15646;BME280;7922;43.622;1.476;2023-03-04T07:46:12;100796.19;;;1.56;80.28
15646;BME280;7922;43.622;1.476;2023-03-04T07:48:38;100794.53;;;1.65;79.58
15646;BME280;7922;43.622;1.476;2023-03-04T07:51:09;100848.81;;;2.11;79.21
15646;BME280;7922;43.622;1.476;2023-03-04T07:53:36;100847.94;;;2.12;79.19
15646;BME280;7922;43.622;1.476;2023-03-04T07:56:03;100820.00;;;1.99;78.75
15646;BME280;7922;43.622;1.476;2023-03-04T07:58:29;100865.44;;;2.27;78.89
15646;BME280;7922;43.622;1.476;2023-03-04T08:00:54;100792.13;;;1.99;78.86
15646;BME280;7922;43.622;1.476;2023-03-04T08:03:20;100823.59;;;2.14;78.71
15646;BME280;7922;43.622;1.476;2023-03-04T08:05:45;100823.63;;;2.28;77.22
15646;BME280;7922;43.622;1.476;2023-03-04T08:08:10;100650.81;;;1.47;77.16
15646;BME280;7922;43.622;1.476;2023-03-04T08:10:36;100801.06;;;2.44;77.46
15646;BME280;7922;43.622;1.476;2023-03-04T08:13:01;100894.56;;;3.09;77.02
15646;BME280;7922;43.622;1.476;2023-03-04T08:15:26;100671.09;;;2.00;76.96
15646;BME280;7922;43.622;1.476;2023-03-04T08:17:52;100764.47;;;2.49;77.30
15646;BME280;7922;43.622;1.476;2023-03-04T08:20:17;100859.72;;;3.27;77.01
15646;BME280;7922;43.622;1.476;2023-03-04T08:22:43;100866.69;;;3.39;76.48
15646;BME280;7922;43.622;1.476;2023-03-04T08:25:08;100701.69;;;2.53;76.11
15646;BME280;7922;43.622;1.476;2023-03-04T08:27:33;100758.44;;;2.97;75.48
15646;BME280;7922;43.622;1.476;2023-03-04T08:29:59;100824.78;;;3.51;75.09
15646;BME280;7922;43.622;1.476;2023-03-04T08:32:24;100814.34;;;3.56;74.75
15646;BME280;7922;43.622;1.476;2023-03-04T08:34:49;100766.31;;;3.35;75.12
15646;BME280;7922;43.622;1.476;2023-03-04T08:37:15;100774.13;;;3.63;74.53
15646;BME280;7922;43.622;1.476;2023-03-04T08:39:40;100801.19;;;3.90;73.86
15646;BME280;7922;43.622;1.476;2023-03-04T08:42:05;100668.56;;;3.33;73.58
15646;BME280;7922;43.622;1.476;2023-03-04T08:44:30;100692.06;;;3.62;71.97
15646;BME280;7922;43.622;1.476;2023-03-04T08:46:56;100792.31;;;4.27;71.65
15646;BME280;7922;43.622;1.476;2023-03-04T08:49:21;100797.44;;;4.56;70.47
15646;BME280;7922;43.622;1.476;2023-03-04T08:51:46;100725.00;;;4.31;70.13
15646;BME280;7922;43.622;1.476;2023-03-04T08:54:11;100788.50;;;4.90;70.92
15646;BME280;7922;43.622;1.476;2023-03-04T08:56:37;100885.28;;;5.51;69.77
15646;BME280;7922;43.622;1.476;2023-03-04T08:59:02;100712.59;;;4.61;68.49
15646;BME280;7922;43.622;1.476;2023-03-04T09:01:28;100844.97;;;5.57;68.15
15646;BME280;7922;43.622;1.476;2023-03-04T09:03:53;100832.81;;;5.37;67.09
15646;BME280;7922;43.622;1.476;2023-03-04T09:06:19;100717.69;;;4.87;66.59
15646;BME280;7922;43.622;1.476;2023-03-04T09:08:44;100800.38;;;5.46;65.78
15646;BME280;7922;43.622;1.476;2023-03-04T09:11:11;100832.44;;;5.83;65.43
15646;BME280;7922;43.622;1.476;2023-03-04T09:13:36;100847.25;;;5.95;64.86
15646;BME280;7922;43.622;1.476;2023-03-04T09:16:02;100858.59;;;6.03;65.60
15646;BME280;7922;43.622;1.476;2023-03-04T09:18:28;100687.06;;;4.84;65.77
15646;BME280;7922;43.622;1.476;2023-03-04T09:20:53;100676.69;;;4.69;64.91
15646;BME280;7922;43.622;1.476;2023-03-04T09:23:19;100853.66;;;5.65;65.35
15646;BME280;7922;43.622;1.476;2023-03-04T09:25:45;100880.66;;;5.85;64.96
15646;BME280;7922;43.622;1.476;2023-03-04T09:28:12;100774.34;;;5.14;65.59
15646;BME280;7922;43.622;1.476;2023-03-04T09:30:37;100747.97;;;5.26;65.24
15646;BME280;7922;43.622;1.476;2023-03-04T09:33:03;100830.66;;;5.93;64.85
15646;BME280;7922;43.622;1.476;2023-03-04T09:35:28;100814.09;;;5.77;64.13
15646;BME280;7922;43.622;1.476;2023-03-04T09:37:53;100827.78;;;6.16;63.14
15646;BME280;7922;43.622;1.476;2023-03-04T09:40:22;100690.72;;;5.63;62.56
15646;BME280;7922;43.622;1.476;2023-03-04T09:42:55;100800.88;;;6.63;61.55
15646;BME280;7922;43.622;1.476;2023-03-04T09:45:32;100771.94;;;6.63;60.95
15646;BME280;7922;43.622;1.476;2023-03-04T09:47:59;100754.31;;;6.67;60.29
15646;BME280;7922;43.622;1.476;2023-03-04T09:50:25;100704.56;;;6.50;59.95
15646;BME280;7922;43.622;1.476;2023-03-04T09:53:12;100808.16;;;7.08;59.23
15646;BME280;7922;43.622;1.476;2023-03-04T09:55:44;100705.44;;;6.50;60.09
15646;BME280;7922;43.622;1.476;2023-03-04T09:58:48;100878.50;;;7.61;59.24
15646;BME280;7922;43.622;1.476;2023-03-04T10:01:24;100876.72;;;7.62;59.49
15646;BME280;7922;43.622;1.476;2023-03-04T10:06:40;100746.28;;;6.78;59.73
15646;BME280;7922;43.622;1.476;2023-03-04T10:09:22;100840.06;;;7.48;59.50
15646;BME280;7922;43.622;1.476;2023-03-04T10:12:06;100829.25;;;7.63;59.37
15646;BME280;7922;43.622;1.476;2023-03-04T10:14:39;100869.47;;;7.76;59.70
15646;BME280;7922;43.622;1.476;2023-03-04T10:17:18;100876.41;;;7.82;58.92
15646;BME280;7922;43.622;1.476;2023-03-04T10:20:02;100848.00;;;7.97;58.97
15646;BME280;7922;43.622;1.476;2023-03-04T10:22:34;100707.06;;;7.16;58.96
15646;BME280;7922;43.622;1.476;2023-03-04T10:25:19;100863.81;;;7.97;58.28
15646;BME280;7922;43.622;1.476;2023-03-04T10:27:51;100803.25;;;7.93;57.51
15646;BME280;7922;43.622;1.476;2023-03-04T10:33:15;100730.41;;;7.38;56.62
15646;BME280;7922;43.622;1.476;2023-03-04T10:35:45;100787.94;;;7.62;57.87
15646;BME280;7922;43.622;1.476;2023-03-04T10:38:13;100661.44;;;7.11;57.00
15646;BME280;7922;43.622;1.476;2023-03-04T10:40:40;100811.72;;;8.09;55.08
15646;BME280;7922;43.622;1.476;2023-03-04T10:43:14;100800.50;;;7.97;54.72
15646;BME280;7922;43.622;1.476;2023-03-04T10:45:39;100791.41;;;7.66;55.43
15646;BME280;7922;43.622;1.476;2023-03-04T10:48:05;100859.84;;;8.23;54.88
15646;BME280;7922;43.622;1.476;2023-03-04T10:50:31;100785.44;;;8.04;54.06
15646;BME280;7922;43.622;1.476;2023-03-04T10:52:56;100750.69;;;7.82;53.12
15646;BME280;7922;43.622;1.476;2023-03-04T10:55:29;100824.16;;;8.02;54.18
15646;BME280;7922;43.622;1.476;2023-03-04T10:58:06;100729.84;;;7.17;55.31
15646;BME280;7922;43.622;1.476;2023-03-04T11:00:36;100757.13;;;7.66;54.59
15646;BME280;7922;43.622;1.476;2023-03-04T11:06:05;100684.44;;;7.53;54.21
15646;BME280;7922;43.622;1.476;2023-03-04T11:08:30;100778.66;;;8.36;52.73
15646;BME280;7922;43.622;1.476;2023-03-04T11:10:56;100831.47;;;8.36;53.87
15646;BME280;7922;43.622;1.476;2023-03-04T11:13:23;100785.22;;;8.15;53.55
15646;BME280;7922;43.622;1.476;2023-03-04T11:15:59;100828.34;;;8.60;53.14
15646;BME280;7922;43.622;1.476;2023-03-04T11:18:43;100801.50;;;8.80;53.04
15646;BME280;7922;43.622;1.476;2023-03-04T11:21:20;100789.03;;;8.47;53.32
15646;BME280;7922;43.622;1.476;2023-03-04T11:23:52;100820.00;;;8.37;53.31
15646;BME280;7922;43.622;1.476;2023-03-04T11:26:23;100684.53;;;7.46;53.44
15646;BME280;7922;43.622;1.476;2023-03-04T11:28:59;100765.69;;;8.24;53.68
15646;BME280;7922;43.622;1.476;2023-03-04T11:35:05;100801.78;;;9.08;52.80
15646;BME280;7922;43.622;1.476;2023-03-04T11:37:56;100760.84;;;8.86;52.46
15646;BME280;7922;43.622;1.476;2023-03-04T11:40:28;100798.38;;;9.02;52.82
15646;BME280;7922;43.622;1.476;2023-03-04T11:43:04;100793.03;;;9.05;53.30
15646;BME280;7922;43.622;1.476;2023-03-04T11:46:03;100795.56;;;9.09;53.25
15646;BME280;7922;43.622;1.476;2023-03-04T11:51:41;100740.69;;;8.83;53.47
15646;BME280;7922;43.622;1.476;2023-03-04T11:56:47;100748.56;;;8.85;53.80
15646;BME280;7922;43.622;1.476;2023-03-04T11:59:33;100798.94;;;8.77;53.68
15646;BME280;7922;43.622;1.476;2023-03-04T12:18:37;100696.28;;;9.99;50.44
15646;BME280;7922;43.622;1.476;2023-03-04T12:27:44;100642.22;;;9.11;52.13
15646;BME280;7922;43.622;1.476;2023-03-04T12:44:17;100696.19;;;9.69;52.12
15646;BME280;7922;43.622;1.476;2023-03-04T12:55:18;100669.22;;;9.56;51.86
15646;BME280;7922;43.622;1.476;2023-03-04T12:57:47;100613.41;;;9.02;51.68
15646;BME280;7922;43.622;1.476;2023-03-04T13:16:58;100538.31;;;9.71;48.82
15646;BME280;7922;43.622;1.476;2023-03-04T13:23:16;100649.16;;;10.96;47.90
15646;BME280;7922;43.622;1.476;2023-03-04T13:25:34;100651.09;;;10.91;48.45
15646;BME280;7922;43.622;1.476;2023-03-04T13:43:38;100598.53;;;9.93;48.98
15646;BME280;7922;43.622;1.476;2023-03-04T13:56:35;100630.53;;;9.83;51.25
15646;BME280;7922;43.622;1.476;2023-03-04T14:04:34;100619.75;;;10.21;50.38
15646;BME280;7922;43.622;1.476;2023-03-04T14:07:01;100489.19;;;9.33;51.17
15646;BME280;7922;43.622;1.476;2023-03-04T14:09:29;100538.16;;;9.76;50.40
15646;BME280;7922;43.622;1.476;2023-03-04T14:12:00;100596.69;;;10.24;50.22
15646;BME280;7922;43.622;1.476;2023-03-04T14:14:45;100570.88;;;10.32;49.54
15646;BME280;7922;43.622;1.476;2023-03-04T14:17:27;100538.16;;;10.60;48.63
15646;BME280;7922;43.622;1.476;2023-03-04T14:19:53;100443.16;;;9.96;48.15
15646;BME280;7922;43.622;1.476;2023-03-04T14:22:24;100555.31;;;10.50;48.79
15646;BME280;7922;43.622;1.476;2023-03-04T14:24:57;100523.38;;;10.26;48.53
15646;BME280;7922;43.622;1.476;2023-03-04T14:27:22;100567.91;;;10.42;48.74
15646;BME280;7922;43.622;1.476;2023-03-04T14:29:55;100585.69;;;10.38;49.16
15646;BME280;7922;43.622;1.476;2023-03-04T14:32:21;100520.44;;;10.07;49.31
15646;BME280;7922;43.622;1.476;2023-03-04T14:34:49;100560.53;;;9.95;49.73
15646;BME280;7922;43.622;1.476;2023-03-04T14:37:32;100400.38;;;9.27;49.09
15646;BME280;7922;43.622;1.476;2023-03-04T14:40:00;100546.91;;;10.07;49.18
15646;BME280;7922;43.622;1.476;2023-03-04T14:42:35;100534.44;;;10.11;49.29
15646;BME280;7922;43.622;1.476;2023-03-04T14:45:01;100540.44;;;10.16;49.47
15646;BME280;7922;43.622;1.476;2023-03-04T14:47:37;100586.25;;;10.48;49.82
15646;BME280;7922;43.622;1.476;2023-03-04T14:50:12;100536.38;;;9.76;50.73
15646;BME280;7922;43.622;1.476;2023-03-04T14:52:41;100561.41;;;9.96;51.11
15646;BME280;7922;43.622;1.476;2023-03-04T14:55:16;100587.00;;;10.23;50.50
15646;BME280;7922;43.622;1.476;2023-03-04T14:57:44;100466.81;;;9.73;50.76
15646;BME280;7922;43.622;1.476;2023-03-04T15:00:24;100452.00;;;9.39;50.68
15646;BME280;7922;43.622;1.476;2023-03-04T15:02:52;100525.47;;;9.87;50.21
15646;BME280;7922;43.622;1.476;2023-03-04T15:05:41;100490.41;;;9.52;50.01